»·PEaware :: WAT169 KLAS-KSAN

WAT169 :: KLAS-KSAN

FLIGHT INFORMATION

Flight Status: Arrived
Operator:
Walker Air Transport
More flights by this operator :: More flights under this callsign
Pilot: Marty P. (27464)
Aircraft: BOEING 737-800
(B738)
More flights by this aircraft type
Origin: KLAS McCarran Intl
United States
Destination: KSAN San Diego Intl-Lindbergh
United States
More flights between these airports :: More routes between these airports
Route: BOACH8 LVELL LUCKI1
File this flight plan on PilotEdge
Remarks:
Altitude:
(Current/Filed)
28,000ft
Speed:
(Current/Filed)
480kts
Departed: 11-Jul-20 05:07 PM
Arrived: 11-Jul-20 05:49 PM
Distance/Time
Traveled:
225nm/0:41
Distance/Time
To Go:
Arrived

Flight Plot

Page will automatically refresh every two minutes.

Flight plan parsing failed; only flown route is shown


Map Options




Map Legend


Flown Route
Filed Route
Departure Airport
Arrival Airport
Navaid (VOR, NDB)
Fix

Horizontal Profiles

Position Reports

Time Latitude Longitude Heading Altitude Ground
Speed
11-Jul-20 16:40 36.081009 -115.147654 61 2191ft 0kts
11-Jul-20 16:41 36.081009 -115.147654 61 2191ft 0kts
11-Jul-20 16:42 36.081009 -115.147654 61 2191ft 0kts
11-Jul-20 16:43 36.081009 -115.147654 61 2191ft 0kts
11-Jul-20 16:44 36.081009 -115.147654 61 2191ft 0kts
11-Jul-20 16:45 36.081009 -115.147654 61 2191ft 0kts
11-Jul-20 16:46 36.081009 -115.147654 61 2191ft 0kts
11-Jul-20 16:47 36.081009 -115.147654 61 2191ft 0kts
11-Jul-20 16:48 36.081009 -115.147654 61 2191ft 0kts
11-Jul-20 16:49 36.081009 -115.147654 61 2191ft 0kts
11-Jul-20 16:50 36.081009 -115.147654 61 2191ft 0kts
11-Jul-20 16:51 36.081009 -115.147655 61 2191ft 0kts
11-Jul-20 16:52 36.081009 -115.147655 61 2191ft 0kts
11-Jul-20 16:53 36.081009 -115.147655 61 2191ft 0kts
11-Jul-20 16:54 36.080991 -115.147694 61 2191ft 2kts
11-Jul-20 16:55 36.080986 -115.148385 126 2191ft 2kts
11-Jul-20 16:56 36.081223 -115.148609 156 2191ft 0kts
11-Jul-20 16:57 36.081223 -115.148609 156 2191ft 0kts
11-Jul-20 16:58 36.079913 -115.147859 155 2191ft 8kts
11-Jul-20 16:59 36.078088 -115.147119 153 2191ft 8kts
11-Jul-20 17:00 36.077541 -115.143151 91 2191ft 16kts
11-Jul-20 17:01 36.077534 -115.138333 89 2191ft 14kts
11-Jul-20 17:02 36.077537 -115.133030 88 2191ft 13kts
11-Jul-20 17:03 36.077539 -115.127491 90 2191ft 16kts
11-Jul-20 17:04 36.077534 -115.121778 99 2191ft 10kts
11-Jul-20 17:05 36.076435 -115.122884 269 2191ft 22kts
11-Jul-20 17:06 36.077886 -115.168654 268 2817ft 198kts
11-Jul-20 17:07 36.065188 -115.247553 232 5307ft 252kts
11-Jul-20 17:08 36.002065 -115.287471 200 8326ft 264kts
11-Jul-20 17:09 35.929644 -115.306847 187 11249ft 273kts
11-Jul-20 17:10 35.847485 -115.313877 178 12606ft 333kts
11-Jul-20 17:11 35.749671 -115.302909 176 13807ft 365kts
11-Jul-20 17:12 35.647992 -115.295363 183 16214ft 370kts
11-Jul-20 17:13 35.544052 -115.299954 183 18321ft 380kts
11-Jul-20 17:14 35.436617 -115.304256 183 20166ft 393kts
11-Jul-20 17:15 35.325924 -115.308633 183 21876ft 404kts
11-Jul-20 17:16 35.212247 -115.313117 182 23459ft 415kts
11-Jul-20 17:17 35.095859 -115.317687 182 25042ft 423kts
11-Jul-20 17:18 34.977558 -115.322323 183 26544ft 431kts
11-Jul-20 17:19 34.859698 -115.327766 186 27887ft 438kts
11-Jul-20 17:20 34.736552 -115.357975 197 27960ft 471kts
11-Jul-20 17:21 34.609196 -115.408115 199 27962ft 482kts
11-Jul-20 17:22 34.483544 -115.461624 200 27963ft 482kts
11-Jul-20 17:23 34.357906 -115.517966 205 27963ft 480kts
11-Jul-20 17:24 34.240477 -115.594024 204 27960ft 481kts
11-Jul-20 17:25 34.121273 -115.654925 202 27924ft 482kts
11-Jul-20 17:26 33.996588 -115.715273 202 27899ft 481kts
11-Jul-20 17:27 33.872549 -115.774754 202 27899ft 481kts
11-Jul-20 17:28 33.753136 -115.833352 202 27896ft 439kts
11-Jul-20 17:29 33.637690 -115.887363 201 27899ft 450kts
11-Jul-20 17:30 33.529183 -115.952725 222 26074ft 435kts
11-Jul-20 17:31 33.451930 -116.061704 232 23446ft 427kts
11-Jul-20 17:32 33.385085 -116.176045 234 20854ft 413kts
11-Jul-20 17:33 33.305207 -116.267138 210 18354ft 392kts
11-Jul-20 17:34 33.212214 -116.324275 203 17028ft 393kts
11-Jul-20 17:35 33.115075 -116.380000 204 14403ft 379kts
11-Jul-20 17:36 33.023899 -116.433581 204 12808ft 345kts
11-Jul-20 17:37 32.950326 -116.499718 219 11540ft 321kts
11-Jul-20 17:38 32.890569 -116.560313 219 10894ft 257kts
11-Jul-20 17:39 32.832740 -116.618417 220 9636ft 277kts
11-Jul-20 17:40 32.774966 -116.678028 231 8318ft 275kts
11-Jul-20 17:41 32.737477 -116.754108 241 7041ft 253kts
11-Jul-20 17:42 32.706093 -116.823715 247 5913ft 229kts
11-Jul-20 17:43 32.683907 -116.895737 250 4978ft 227kts
11-Jul-20 17:44 32.679069 -116.968817 285 5014ft 230kts
11-Jul-20 17:45 32.697911 -117.042976 285 3178ft 227kts
11-Jul-20 17:46 32.714475 -117.111147 286 1144ft 179kts
11-Jul-20 17:47 32.726039 -117.158794 286 495ft 146kts
11-Jul-20 17:48 32.734919 -117.195175 284 27ft 12kts
11-Jul-20 17:49 32.734925 -117.198910 254 27ft 0kts
11-Jul-20 17:50 32.735184 -117.200642 286 27ft 12kts
11-Jul-20 17:51 32.735847 -117.204072 232 27ft 2kts
11-Jul-20 17:52 32.734380 -117.205180 116 27ft 4kts

Navigation Log

Ident Type
Flight plan parsing failed, navigation log unavailable